Time;durP1;ratioP1;P1;durP2;ratioP2;P2;SDS_P1;SDS_P2;PMS_P1;PMS_P2;Temp;Humidity;BMP_temperature;BMP_pressure;BME280_temperature;BME280_humidity;BME280_pressure;Samples;Min_cycle;Max_cycle;Signal;HPM_P1;HPM_P2
2022/08/05 00:01:47;;;;;;;5.05;2.17;;;19.70;99.90;;;;;;5050823;28;37419;-59
2022/08/05 00:04:15;;;;;;;5.75;1.90;;;19.70;99.90;;;;;;5051018;28;37146;-59
2022/08/05 00:06:42;;;;;;;7.63;2.20;;;19.70;99.90;;;;;;5050229;28;40493;-59
2022/08/05 00:09:09;;;;;;;6.68;2.20;;;19.70;99.90;;;;;;5049415;28;39048;-63
2022/08/05 00:11:36;;;;;;;10.63;2.13;;;19.70;99.90;;;;;;5047836;28;36766;-63
2022/08/05 00:14:05;;;;;;;5.63;2.05;;;19.60;99.90;;;;;;5050935;28;36857;-63
2022/08/05 00:16:33;;;;;;;4.18;2.00;;;19.60;99.90;;;;;;5050540;28;37973;-58
2022/08/05 00:19:00;;;;;;;7.78;2.17;;;19.60;99.90;;;;;;5050849;28;39394;-59
2022/08/05 00:21:27;;;;;;;8.55;2.20;;;19.60;99.90;;;;;;5051822;28;38820;-58
2022/08/05 00:23:55;;;;;;;9.20;2.33;;;19.60;99.90;;;;;;5051842;28;36357;-59
2022/08/05 00:26:25;;;;;;;6.55;2.22;;;19.50;99.90;;;;;;5048637;28;36571;-63
2022/08/05 00:28:52;;;;;;;4.50;1.90;;;19.50;99.90;;;;;;5050722;28;39413;-63
2022/08/05 00:31:21;;;;;;;6.47;2.15;;;19.50;99.90;;;;;;5049819;28;37542;-63
2022/08/05 00:33:48;;;;;;;6.28;2.00;;;19.50;99.90;;;;;;5049260;28;36786;-59
2022/08/05 00:36:15;;;;;;;6.90;2.03;;;19.50;99.90;;;;;;5050670;28;35647;-63
2022/08/05 00:38:43;;;;;;;6.50;2.40;;;19.50;99.90;;;;;;5051779;28;37679;-63
2022/08/05 00:41:10;;;;;;;7.15;1.95;;;19.40;99.90;;;;;;5050018;28;37265;-63
2022/08/05 00:43:38;;;;;;;6.60;1.98;;;19.40;99.90;;;;;;5050830;28;38835;-63
2022/08/05 00:46:05;;;;;;;7.68;2.08;;;19.40;99.90;;;;;;5051544;28;37619;-58
2022/08/05 00:48:33;;;;;;;8.35;2.33;;;19.30;99.90;;;;;;5048328;28;36889;-58
2022/08/05 00:51:01;;;;;;;6.65;2.25;;;19.30;99.90;;;;;;5050277;28;36124;-58
2022/08/05 00:53:28;;;;;;;6.72;2.45;;;19.30;99.90;;;;;;5049144;28;37422;-59
2022/08/05 00:55:56;;;;;;;7.82;2.17;;;19.30;99.90;;;;;;5049637;28;37533;-63
2022/08/05 00:58:24;;;;;;;10.10;3.08;;;19.30;99.90;;;;;;5052125;28;20111;-63
2022/08/05 01:00:51;;;;;;;5.57;1.90;;;19.30;99.90;;;;;;5050302;28;38166;-63
2022/08/05 01:03:19;;;;;;;4.65;1.77;;;19.30;99.90;;;;;;5050178;28;36579;-58
2022/08/05 01:05:47;;;;;;;5.88;1.95;;;19.30;99.90;;;;;;5051220;28;38067;-59
2022/08/05 01:08:15;;;;;;;6.03;2.28;;;19.30;99.90;;;;;;5049467;28;39159;-63
2022/08/05 01:10:48;;;;;;;5.53;2.33;;;19.30;99.90;;;;;;5049653;28;38504;-62
2022/08/05 01:13:19;;;;;;;;;;;19.30;99.90;;;;;;5051750;28;36465;-58
2022/08/05 01:15:53;;;;;;;6.40;1.83;;;19.20;99.90;;;;;;5047409;28;37658;-58
2022/08/05 01:18:25;;;;;;;6.72;2.20;;;19.20;99.90;;;;;;5043464;28;36450;-58
2022/08/05 01:21:08;;;;;;;6.88;2.13;;;19.20;99.90;;;;;;5034382;28;38343;-58
2022/08/05 01:23:57;;;;;;;6.50;2.65;;;19.20;99.90;;;;;;5024964;28;38034;-58
2022/08/05 01:26:36;;;;;;;7.82;2.40;;;19.20;99.90;;;;;;5043637;28;37034;-63
2022/08/05 01:29:09;;;;;;;6.72;1.70;;;19.20;99.90;;;;;;5042949;28;37805;-58
2022/08/05 01:31:39;;;;;;;;;;;19.20;99.90;;;;;;5042741;28;37050;-58
2022/08/05 01:34:12;;;;;;;6.40;2.28;;;19.20;99.90;;;;;;5044341;28;37095;-58
2022/08/05 01:36:44;;;;;;;7.00;2.15;;;19.20;99.90;;;;;;5044067;28;37408;-63
2022/08/05 01:39:13;;;;;;;5.40;2.00;;;19.20;99.90;;;;;;5042310;28;36580;-58
2022/08/05 01:41:42;;;;;;;8.57;2.15;;;19.20;99.90;;;;;;5043456;28;38832;-63
2022/08/05 01:44:13;;;;;;;7.00;1.90;;;19.20;99.90;;;;;;5042848;28;36958;-63
2022/08/05 01:46:42;;;;;;;5.90;1.80;;;19.20;99.90;;;;;;5042708;28;39260;-58
2022/08/05 01:49:12;;;;;;;9.38;2.40;;;19.20;99.90;;;;;;5042680;28;38098;-58
2022/08/05 01:51:40;;;;;;;6.93;1.98;;;19.20;99.90;;;;;;5042332;28;38910;-58
2022/08/05 01:54:09;;;;;;;7.38;2.40;;;19.20;99.90;;;;;;5041667;28;36449;-59
2022/08/05 01:56:40;;;;;;;5.53;2.10;;;19.20;99.90;;;;;;5044268;28;36797;-59
2022/08/05 01:59:11;;;;;;;5.22;2.33;;;19.20;99.90;;;;;;5042940;28;38100;-63
2022/08/05 02:01:40;;;;;;;6.70;2.30;;;19.20;99.90;;;;;;5042844;28;38510;-63
2022/08/05 02:04:10;;;;;;;5.35;2.22;;;19.20;99.90;;;;;;5043562;28;37054;-63
2022/08/05 02:06:38;;;;;;;6.47;2.35;;;19.20;99.90;;;;;;5043541;28;37475;-58
2022/08/05 02:09:05;;;;;;;7.85;2.90;;;19.20;99.90;;;;;;5043253;28;37365;-63
2022/08/05 02:11:42;;;;;;;4.40;2.08;;;19.20;99.90;;;;;;5040870;28;37039;-58
2022/08/05 02:14:12;;;;;;;6.95;2.75;;;19.20;99.90;;;;;;5043307;28;37847;-58
2022/08/05 02:16:46;;;;;;;5.82;2.33;;;19.20;99.90;;;;;;5044526;28;40123;-63
2022/08/05 02:19:20;;;;;;;6.57;2.38;;;19.20;99.90;;;;;;5039055;28;38130;-63
2022/08/05 02:21:54;;;;;;;8.02;2.10;;;19.20;99.90;;;;;;5049030;28;38865;-58
2022/08/05 02:24:24;;;;;;;7.03;2.50;;;19.20;99.90;;;;;;5045790;28;35411;-58
2022/08/05 02:26:56;;;;;;;6.60;2.47;;;19.20;99.90;;;;;;5043689;28;37774;-64
2022/08/05 02:29:29;;;;;;;6.93;2.50;;;19.10;99.90;;;;;;5038493;28;36354;-63
2022/08/05 02:31:57;;;;;;;6.55;2.30;;;19.00;99.90;;;;;;5038863;28;37122;-58
2022/08/05 02:34:28;;;;;;;6.63;2.60;;;19.00;99.90;;;;;;5039492;28;36304;-59
2022/08/05 02:36:59;;;;;;;6.50;2.90;;;19.00;99.90;;;;;;5048849;28;37417;-59
2022/08/05 02:39:31;;;;;;;7.57;2.67;;;19.00;99.90;;;;;;5048555;28;37070;-58
2022/08/05 02:41:59;;;;;;;9.43;2.72;;;19.00;99.90;;;;;;5048506;28;38873;-63
2022/08/05 02:44:30;;;;;;;7.85;3.03;;;18.90;99.90;;;;;;5047767;28;37563;-59
2022/08/05 02:46:59;;;;;;;7.78;2.83;;;19.00;99.90;;;;;;5034836;28;37507;-58
2022/08/05 02:49:27;;;;;;;9.05;2.10;;;18.90;99.90;;;;;;5040554;28;38632;-58
2022/08/05 02:51:56;;;;;;;6.50;2.30;;;18.90;99.90;;;;;;5041235;28;37230;-58
2022/08/05 02:54:24;;;;;;;7.25;2.40;;;18.90;99.90;;;;;;5043563;28;37780;-63
2022/08/05 02:56:52;;;;;;;6.68;2.80;;;18.90;99.90;;;;;;5036541;28;37398;-58
2022/08/05 02:59:20;;;;;;;6.60;2.70;;;19.00;99.90;;;;;;5036356;28;38306;-63
2022/08/05 03:01:53;;;;;;;6.13;2.42;;;19.00;99.90;;;;;;5034738;28;37447;-63
2022/08/05 03:04:20;;;;;;;7.60;2.53;;;18.90;99.90;;;;;;5034229;28;37252;-58
2022/08/05 03:06:47;;;;;;;6.22;2.33;;;18.90;99.90;;;;;;5044027;28;36336;-59
2022/08/05 03:09:15;;;;;;;5.25;2.42;;;18.90;99.90;;;;;;5040320;28;38003;-63
2022/08/05 03:11:43;;;;;;;7.10;2.50;;;18.90;99.90;;;;;;5049581;28;37455;-63
2022/08/05 03:14:11;;;;;;;8.82;2.78;;;18.90;99.90;;;;;;5046265;28;36741;-63
2022/08/05 03:16:38;;;;;;;5.85;2.20;;;18.90;99.90;;;;;;5051494;28;37531;-58
2022/08/05 03:19:07;;;;;;;6.05;2.13;;;18.90;99.90;;;;;;5051005;28;37114;-63
2022/08/05 03:21:34;;;;;;;5.93;2.40;;;18.80;99.90;;;;;;5053613;28;37057;-58
2022/08/05 03:24:02;;;;;;;12.65;2.38;;;18.80;99.90;;;;;;5052454;28;36233;-58
2022/08/05 03:26:30;;;;;;;8.93;2.97;;;18.80;99.90;;;;;;5049611;28;37565;-63
2022/08/05 03:28:57;;;;;;;7.30;2.50;;;18.80;99.90;;;;;;5051233;28;39335;-59
2022/08/05 03:31:26;;;;;;;5.28;2.22;;;18.70;99.90;;;;;;5051094;28;38458;-58
2022/08/05 03:33:53;;;;;;;8.05;2.70;;;18.80;99.90;;;;;;5044417;28;36696;-63
2022/08/05 03:36:22;;;;;;;6.10;2.50;;;18.80;99.90;;;;;;5044096;28;37562;-63
2022/08/05 03:38:49;;;;;;;5.28;2.50;;;18.70;99.90;;;;;;5051637;28;38140;-58
2022/08/05 03:41:17;;;;;;;8.48;2.40;;;18.70;99.90;;;;;;5048219;28;36227;-58
2022/08/05 03:43:44;;;;;;;7.65;2.78;;;18.70;99.90;;;;;;5050729;28;36470;-63
2022/08/05 03:46:12;;;;;;;6.82;2.15;;;18.70;99.90;;;;;;5051623;28;37619;-63
2022/08/05 03:48:39;;;;;;;5.70;2.25;;;18.60;99.90;;;;;;5050256;28;36373;-63
2022/08/05 03:51:12;;;;;;;4.93;2.15;;;18.60;99.90;;;;;;5036272;28;37756;-59
2022/08/05 03:53:48;;;;;;;5.95;2.53;;;18.60;99.90;;;;;;5040383;28;38452;-58
2022/08/05 03:56:22;;;;;;;8.50;2.83;;;18.60;99.90;;;;;;5046829;28;38089;-63
2022/08/05 03:58:53;;;;;;;8.68;2.72;;;18.60;99.90;;;;;;5048127;28;37835;-64
2022/08/05 04:01:22;;;;;;;10.75;2.63;;;18.60;99.90;;;;;;5050274;28;37394;-63
2022/08/05 04:03:51;;;;;;;5.50;2.67;;;18.60;99.90;;;;;;5042774;28;36912;-63
2022/08/05 04:06:19;;;;;;;7.22;2.50;;;18.60;99.90;;;;;;5042599;28;38961;-62
2022/08/05 04:08:50;;;;;;;6.25;2.53;;;18.60;99.90;;;;;;5050432;28;38625;-58
2022/08/05 04:11:17;;;;;;;6.88;3.80;;;18.50;99.90;;;;;;5047154;28;38057;-62
2022/08/05 04:13:45;;;;;;;7.10;3.83;;;18.50;99.90;;;;;;5051929;28;37095;-58
2022/08/05 04:16:13;;;;;;;6.65;3.13;;;18.50;99.90;;;;;;5049501;28;37470;-63
2022/08/05 04:18:41;;;;;;;6.90;3.15;;;18.50;99.90;;;;;;5050498;28;38762;-58
2022/08/05 04:21:08;;;;;;;5.72;3.15;;;18.50;99.90;;;;;;5050343;28;38655;-58
2022/08/05 04:23:36;;;;;;;9.02;3.92;;;18.50;99.90;;;;;;5051173;28;36210;-58
2022/08/05 04:26:05;;;;;;;8.25;3.60;;;18.50;99.90;;;;;;5046094;28;37087;-58
2022/08/05 04:28:33;;;;;;;9.00;3.88;;;18.40;99.90;;;;;;5050163;28;36251;-62
2022/08/05 04:31:00;;;;;;;15.63;3.70;;;18.40;99.90;;;;;;5051286;28;37881;-58
2022/08/05 04:33:28;;;;;;;7.05;3.50;;;18.40;99.90;;;;;;5050258;28;37423;-58
2022/08/05 04:35:55;;;;;;;7.25;3.63;;;18.40;99.90;;;;;;5051173;28;36383;-58
2022/08/05 04:38:23;;;;;;;6.32;3.45;;;18.40;99.90;;;;;;5049895;28;39702;-58
2022/08/05 04:40:50;;;;;;;7.93;3.47;;;18.30;99.90;;;;;;5049741;28;37654;-58
2022/08/05 04:43:19;;;;;;;6.03;3.10;;;18.30;99.90;;;;;;5049523;28;36287;-63
2022/08/05 04:45:46;;;;;;;11.23;3.70;;;18.30;99.90;;;;;;5050798;28;37266;-62
2022/08/05 04:48:14;;;;;;;7.13;3.25;;;18.30;99.90;;;;;;5050819;28;37746;-63
2022/08/05 04:50:43;;;;;;;8.45;2.92;;;18.30;99.90;;;;;;5051565;28;38974;-58
2022/08/05 04:53:12;;;;;;;6.72;3.00;;;18.30;99.90;;;;;;5052135;28;36663;-58
2022/08/05 04:55:40;;;;;;;6.00;3.30;;;18.40;99.90;;;;;;5051400;28;40054;-58
2022/08/05 04:58:09;;;;;;;6.65;3.53;;;18.40;99.90;;;;;;5050872;28;36889;-58
2022/08/05 05:00:39;;;;;;;8.13;3.55;;;18.40;99.90;;;;;;5049096;28;39983;-63
2022/08/05 05:03:07;;;;;;;6.35;3.42;;;18.50;99.90;;;;;;5050898;28;37155;-63
2022/08/05 05:05:35;;;;;;;9.43;4.60;;;18.50;99.90;;;;;;5050355;28;37497;-58
2022/08/05 05:08:05;;;;;;;10.40;4.28;;;18.50;99.90;;;;;;5049396;28;39122;-63
2022/08/05 05:10:34;;;;;;;8.40;3.58;;;18.50;99.90;;;;;;5049711;28;37379;-63
2022/08/05 05:13:02;;;;;;;6.55;3.28;;;18.50;99.90;;;;;;5050845;28;36453;-62
2022/08/05 05:15:29;;;;;;;5.22;3.08;;;18.50;99.90;;;;;;5051969;28;39228;-63
2022/08/05 05:17:57;;;;;;;10.38;3.30;;;18.50;99.90;;;;;;5050769;28;36513;-58
2022/08/05 05:20:25;;;;;;;8.60;3.83;;;18.50;99.90;;;;;;5049414;28;36290;-59
2022/08/05 05:22:52;;;;;;;9.35;3.13;;;18.50;99.90;;;;;;5049844;28;36668;-63
2022/08/05 05:25:20;;;;;;;7.40;3.65;;;18.50;99.90;;;;;;5050038;28;37439;-63
2022/08/05 05:27:47;;;;;;;7.53;3.88;;;18.50;99.90;;;;;;5049436;28;37480;-63
2022/08/05 05:30:15;;;;;;;6.70;3.65;;;18.50;99.90;;;;;;5051709;28;37365;-58
2022/08/05 05:32:42;;;;;;;7.13;3.90;;;18.40;99.90;;;;;;5050846;28;36648;-58
2022/08/05 05:35:12;;;;;;;6.65;3.08;;;18.40;99.90;;;;;;5049312;28;37276;-63
2022/08/05 05:37:47;;;;;;;6.25;3.63;;;18.30;99.90;;;;;;5050668;28;37940;-58
2022/08/05 05:40:15;;;;;;;4.80;2.92;;;18.30;99.90;;;;;;5050443;28;38329;-58
2022/08/05 05:42:42;;;;;;;7.65;3.80;;;18.30;99.90;;;;;;5046899;28;36363;-58
2022/08/05 05:45:10;;;;;;;6.13;3.47;;;18.30;99.90;;;;;;5046568;28;36252;-58
2022/08/05 05:47:38;;;;;;;10.00;3.92;;;18.30;99.90;;;;;;5049923;28;37183;-62
2022/08/05 05:50:06;;;;;;;5.57;3.35;;;18.20;99.90;;;;;;5049852;28;36671;-62
2022/08/05 05:52:35;;;;;;;6.88;4.07;;;18.20;99.90;;;;;;5050109;28;36447;-63
2022/08/05 05:55:04;;;;;;;8.10;3.65;;;18.30;99.90;;;;;;5050735;28;37656;-63
2022/08/05 05:57:31;;;;;;;5.72;3.40;;;18.30;99.90;;;;;;5041641;28;37823;-62
2022/08/05 05:59:58;;;;;;;6.45;3.88;;;18.30;99.90;;;;;;5051526;28;37318;-63
2022/08/05 06:02:26;;;;;;;7.15;3.75;;;18.30;99.90;;;;;;5041861;28;35250;-63
2022/08/05 06:04:53;;;;;;;7.32;3.15;;;18.30;99.90;;;;;;5042953;28;37586;-62
2022/08/05 06:07:21;;;;;;;5.72;3.25;;;18.40;99.90;;;;;;5037656;28;38716;-63
2022/08/05 06:09:49;;;;;;;6.57;3.30;;;18.50;99.90;;;;;;5052154;28;37554;-58
2022/08/05 06:12:17;;;;;;;6.32;2.97;;;18.70;99.90;;;;;;5050854;28;36409;-58
2022/08/05 06:14:44;;;;;;;9.23;4.25;;;18.90;99.90;;;;;;5049393;28;37939;-63
2022/08/05 06:17:12;;;;;;;9.45;3.30;;;19.00;99.90;;;;;;5033075;28;37893;-63
2022/08/05 06:19:40;;;;;;;5.72;2.70;;;19.20;99.90;;;;;;5028639;28;36118;-63
2022/08/05 06:22:08;;;;;;;7.38;3.08;;;19.40;99.90;;;;;;5031242;28;36796;-64
2022/08/05 06:24:41;;;;;;;7.32;2.72;;;19.50;99.90;;;;;;5028749;28;37696;-63
2022/08/05 06:27:09;;;;;;;5.77;2.83;;;19.60;99.90;;;;;;5030372;28;36498;-63
2022/08/05 06:29:37;;;;;;;5.45;2.80;;;19.70;99.90;;;;;;5028112;28;37054;-63
2022/08/05 06:32:05;;;;;;;4.95;2.55;;;19.80;99.90;;;;;;5028630;28;36550;-63
2022/08/05 06:34:32;;;;;;;4.70;2.60;;;19.90;99.90;;;;;;5029018;28;38573;-63
2022/08/05 06:36:59;;;;;;;4.85;2.80;;;20.00;99.90;;;;;;5029369;28;37628;-63
2022/08/05 06:39:27;;;;;;;5.75;2.38;;;20.00;99.90;;;;;;5031352;28;36915;-63
2022/08/05 06:41:55;;;;;;;3.90;2.10;;;20.10;99.90;;;;;;5029001;28;36586;-63
2022/08/05 06:44:24;;;;;;;4.85;2.80;;;20.10;99.90;;;;;;5029572;28;37550;-58
2022/08/05 06:46:51;;;;;;;4.05;2.03;;;20.20;99.90;;;;;;5030250;28;37687;-63
2022/08/05 06:49:19;;;;;;;7.70;2.45;;;20.30;99.90;;;;;;5029710;28;37262;-63
2022/08/05 06:51:46;;;;;;;4.07;1.40;;;20.30;99.90;;;;;;5030321;28;35979;-63
2022/08/05 06:54:13;;;;;;;3.75;1.50;;;20.40;99.90;;;;;;5028487;28;37580;-59
2022/08/05 06:56:40;;;;;;;3.80;1.10;;;20.40;99.90;;;;;;5031262;28;36574;-58
2022/08/05 06:59:08;;;;;;;4.63;1.13;;;20.40;99.90;;;;;;5029871;28;37549;-58
2022/08/05 07:01:37;;;;;;;4.30;1.20;;;20.50;99.90;;;;;;5034096;28;37128;-59
2022/08/05 07:04:04;;;;;;;4.68;1.13;;;20.50;99.90;;;;;;5032153;28;38016;-58
2022/08/05 07:06:32;;;;;;;3.65;1.00;;;20.50;99.90;;;;;;5034132;28;36507;-58
2022/08/05 07:08:59;;;;;;;3.17;1.20;;;20.60;99.90;;;;;;5021715;28;37300;-58
2022/08/05 07:11:29;;;;;;;4.13;0.98;;;20.60;99.90;;;;;;5028469;28;38547;-59
2022/08/05 07:16:58;;;;;;;2.95;0.90;;;20.50;99.90;;;;;;5032170;28;39212;-58
2022/08/05 07:19:27;;;;;;;3.53;0.90;;;20.40;99.90;;;;;;5031180;28;37412;-58
2022/08/05 07:21:55;;;;;;;4.47;0.80;;;20.50;99.90;;;;;;5033366;28;36466;-59
2022/08/05 07:24:24;;;;;;;6.22;1.08;;;20.60;99.90;;;;;;5032991;28;37338;-63
2022/08/05 07:26:51;;;;;;;4.38;0.82;;;20.60;99.90;;;;;;5031165;28;37777;-63
2022/08/05 07:29:19;;;;;;;5.13;1.00;;;20.70;99.90;;;;;;5031441;28;37308;-63
2022/08/05 07:31:47;;;;;;;5.13;1.23;;;20.80;99.90;;;;;;5032230;28;37243;-63
2022/08/05 07:34:15;;;;;;;2.30;0.85;;;20.90;99.80;;;;;;5029314;28;36952;-63
2022/08/05 07:36:42;;;;;;;3.80;0.88;;;20.90;99.50;;;;;;5030547;28;38504;-64
2022/08/05 07:39:10;;;;;;;1.77;0.60;;;21.00;99.30;;;;;;5028693;28;38955;-63
2022/08/05 07:41:37;;;;;;;1.95;0.70;;;21.00;99.10;;;;;;5027727;28;36892;-63
2022/08/05 07:44:06;;;;;;;2.17;0.68;;;20.90;99.10;;;;;;5030292;28;37611;-63
2022/08/05 07:46:34;;;;;;;2.70;0.77;;;20.90;98.90;;;;;;5029495;28;38335;-63
2022/08/05 07:49:03;;;;;;;3.42;0.77;;;21.00;98.80;;;;;;5029412;28;37679;-63
2022/08/05 07:51:32;;;;;;;4.40;0.95;;;21.10;98.50;;;;;;5030763;28;36470;-63
2022/08/05 07:53:59;;;;;;;4.05;0.80;;;21.10;98.40;;;;;;5028787;28;37699;-63
2022/08/05 07:56:26;;;;;;;3.10;0.70;;;21.00;98.20;;;;;;5029750;28;39615;-63
2022/08/05 07:58:54;;;;;;;2.45;0.68;;;21.00;98.50;;;;;;5032333;28;39901;-63
2022/08/05 08:01:23;;;;;;;5.35;0.60;;;21.00;98.50;;;;;;5031106;28;36393;-58
2022/08/05 08:03:51;;;;;;;2.38;0.60;;;21.10;98.20;;;;;;5031656;28;37385;-58
2022/08/05 08:06:19;;;;;;;2.30;0.75;;;21.20;97.80;;;;;;5031409;28;37849;-58
2022/08/05 08:08:47;;;;;;;2.75;0.70;;;21.20;97.60;;;;;;5030621;28;37487;-58
2022/08/05 08:11:14;;;;;;;4.45;1.13;;;21.30;97.60;;;;;;5032043;28;35451;-64
2022/08/05 08:13:41;;;;;;;2.20;0.50;;;21.40;97.60;;;;;;5032622;28;38080;-64
2022/08/05 08:16:09;;;;;;;3.72;0.68;;;21.40;97.60;;;;;;5030346;28;37569;-63
2022/08/05 08:18:36;;;;;;;1.75;0.50;;;21.50;97.20;;;;;;5031897;28;36100;-63
2022/08/05 08:21:04;;;;;;;3.05;0.60;;;21.60;97.20;;;;;;5028515;28;40245;-64
2022/08/05 08:23:34;;;;;;;2.28;0.60;;;21.50;96.80;;;;;;5027546;28;37585;-58
2022/08/05 08:26:01;;;;;;;5.70;1.08;;;21.30;97.00;;;;;;5026541;28;37123;-59
2022/08/05 08:28:28;;;;;;;4.18;0.80;;;21.30;97.20;;;;;;5012824;28;39937;-59
2022/08/05 08:30:56;;;;;;;5.70;1.25;;;21.30;97.60;;;;;;5031647;28;36604;-58
2022/08/05 08:33:23;;;;;;;4.38;0.80;;;21.30;97.80;;;;;;5026988;28;37485;-58
2022/08/05 08:35:51;;;;;;;2.92;0.75;;;21.40;97.90;;;;;;5029913;28;37735;-58
2022/08/05 08:38:18;;;;;;;2.75;0.65;;;21.50;97.40;;;;;;5030788;28;36140;-58
2022/08/05 08:40:48;;;;;;;6.43;0.98;;;21.60;96.90;;;;;;5030623;28;36613;-58
2022/08/05 08:43:18;;;;;;;5.93;0.60;;;21.60;96.70;;;;;;5026151;28;36249;-63
2022/08/05 08:45:49;;;;;;;2.38;0.90;;;21.70;96.70;;;;;;5029064;28;36572;-63
2022/08/05 08:48:19;;;;;;;5.07;1.17;;;21.70;96.40;;;;;;5031842;28;37737;-58
2022/08/05 08:50:47;;;;;;;3.55;0.75;;;21.60;95.90;;;;;;5030957;28;39411;-63
2022/08/05 08:53:16;;;;;;;2.83;0.75;;;21.40;95.70;;;;;;5032537;28;38028;-63
2022/08/05 08:55:46;;;;;;;1.88;0.73;;;21.30;96.10;;;;;;5030753;28;38537;-63
2022/08/05 08:58:17;;;;;;;3.47;0.60;;;21.40;96.10;;;;;;5030277;28;38372;-58
2022/08/05 09:00:45;;;;;;;2.95;0.60;;;21.50;96.20;;;;;;5030065;28;36894;-63
2022/08/05 09:03:13;;;;;;;2.95;0.52;;;21.60;96.10;;;;;;5030568;28;40106;-63
2022/08/05 09:05:40;;;;;;;2.45;0.60;;;21.70;95.80;;;;;;5031382;28;37515;-63
2022/08/05 09:08:08;;;;;;;2.15;0.50;;;21.60;95.30;;;;;;5029722;28;36232;-63
2022/08/05 09:10:35;;;;;;;3.15;0.77;;;21.60;95.10;;;;;;5029452;28;36365;-65
2022/08/05 09:13:03;;;;;;;1.25;0.50;;;21.70;95.90;;;;;;5029108;28;37478;-63
2022/08/05 09:15:32;;;;;;;2.47;0.50;;;21.80;95.60;;;;;;5031450;28;36526;-58
2022/08/05 09:17:59;;;;;;;3.67;0.50;;;21.90;94.70;;;;;;5042543;28;37852;-58
2022/08/05 09:20:27;;;;;;;2.10;0.50;;;21.80;93.90;;;;;;5051921;28;35591;-63
2022/08/05 09:23:09;;;;;;;3.40;0.70;;;21.90;93.90;;;;;;5051287;28;39588;-58
2022/08/05 09:25:39;;;;;;;2.27;0.57;;;22.00;93.30;;;;;;5050196;28;38034;-63
2022/08/05 09:28:11;;;;;;;3.45;0.50;;;22.10;93.20;;;;;;5051286;28;38902;-63
2022/08/05 09:30:42;;;;;;;2.05;0.70;;;22.30;93.50;;;;;;5051056;28;35973;-63
2022/08/05 09:33:10;;;;;;;4.43;0.50;;;22.40;92.40;;;;;;5051025;28;37073;-58
2022/08/05 09:35:37;;;;;;;3.60;0.65;;;22.40;91.90;;;;;;5050705;28;37812;-58
2022/08/05 09:38:07;;;;;;;5.03;1.25;;;22.50;91.50;;;;;;5052220;28;38222;-63
2022/08/05 09:40:36;;;;;;;2.75;0.70;;;22.60;91.20;;;;;;5049525;28;37492;-58
2022/08/05 09:43:06;;;;;;;4.40;0.80;;;22.80;91.30;;;;;;5049891;28;37081;-63
2022/08/05 09:45:39;;;;;;;4.13;0.55;;;22.70;90.20;;;;;;5049901;28;37835;-58
2022/08/05 09:48:20;;;;;;;2.08;0.50;;;22.60;90.00;;;;;;5050548;28;36733;-58
2022/08/05 09:50:53;;;;;;;2.40;0.60;;;22.60;88.00;;;;;;5049984;28;36186;-58
2022/08/05 09:53:20;;;;;;;1.53;0.50;;;22.60;87.70;;;;;;5050338;28;37376;-58
2022/08/05 09:55:52;;;;;;;3.65;0.63;;;22.70;87.10;;;;;;5050106;28;40259;-58
2022/08/05 09:58:20;;;;;;;3.40;0.50;;;22.80;86.10;;;;;;5049566;28;36170;-58
2022/08/05 10:00:59;;;;;;;3.85;0.68;;;22.80;83.30;;;;;;5049816;28;36338;-63
2022/08/05 10:03:27;;;;;;;1.08;0.40;;;22.80;82.00;;;;;;5050599;28;37385;-63
2022/08/05 10:06:06;;;;;;;3.60;0.68;;;22.80;83.00;;;;;;5049048;28;36464;-58
2022/08/05 10:08:35;;;;;;;2.13;0.50;;;22.80;85.30;;;;;;5049673;28;37317;-63
2022/08/05 10:11:05;;;;;;;2.97;0.52;;;22.90;84.50;;;;;;5048141;28;36366;-58
2022/08/05 10:13:36;;;;;;;1.52;0.30;;;23.00;82.70;;;;;;5047588;28;38003;-63
2022/08/05 10:16:06;;;;;;;3.60;0.30;;;22.90;81.30;;;;;;5049162;28;36663;-63
2022/08/05 10:18:33;;;;;;;1.15;0.25;;;22.90;76.90;;;;;;5049782;28;39391;-63
2022/08/05 10:21:03;;;;;;;2.78;0.50;;;22.90;71.20;;;;;;5048496;28;37329;-63
2022/08/05 10:23:33;;;;;;;2.50;0.30;;;22.90;67.90;;;;;;5048662;28;39117;-58
2022/08/05 10:26:02;;;;;;;0.30;0.20;;;22.80;65.80;;;;;;5050333;28;37482;-58
2022/08/05 10:28:30;;;;;;;3.42;0.50;;;22.80;64.90;;;;;;5046824;28;36235;-58
2022/08/05 10:30:57;;;;;;;2.30;0.32;;;22.80;64.00;;;;;;5050589;28;36333;-58
2022/08/05 10:33:28;;;;;;;0.88;0.43;;;22.80;64.90;;;;;;5051604;28;41463;-63
2022/08/05 10:35:56;;;;;;;2.95;0.57;;;22.80;65.40;;;;;;5047511;28;37984;-63
2022/08/05 10:38:26;;;;;;;2.70;0.50;;;22.80;65.80;;;;;;5049674;28;38506;-63
2022/08/05 10:41:02;;;;;;;0.80;0.30;;;22.80;65.60;;;;;;5049044;28;39272;-63
2022/08/05 10:43:39;;;;;;;1.40;0.43;;;22.90;65.80;;;;;;5048296;28;37511;-63
2022/08/05 10:46:08;;;;;;;1.95;0.38;;;22.90;64.70;;;;;;5049837;28;37385;-62
2022/08/05 10:48:39;;;;;;;0.75;0.20;;;22.90;64.70;;;;;;5046566;28;38573;-63
2022/08/05 10:51:10;;;;;;;1.02;0.30;;;23.00;63.40;;;;;;5043523;28;35188;-63
2022/08/05 10:53:41;;;;;;;0.90;0.22;;;22.90;61.90;;;;;;5045927;28;38897;-58
2022/08/05 10:56:11;;;;;;;0.60;0.10;;;23.00;62.10;;;;;;5047044;28;38700;-63
2022/08/05 10:58:49;;;;;;;1.38;0.40;;;23.00;62.90;;;;;;5048222;28;37094;-63
2022/08/05 11:01:17;;;;;;;0.88;0.30;;;22.90;61.00;;;;;;5040293;28;37322;-63
2022/08/05 11:04:05;;;;;;;1.27;0.50;;;22.90;61.60;;;;;;5048222;28;36213;-63
2022/08/05 11:06:34;;;;;;;2.20;0.35;;;22.90;62.80;;;;;;5048801;28;38471;-63
2022/08/05 11:09:18;;;;;;;4.90;0.50;;;22.90;62.80;;;;;;5048165;28;37851;-63
2022/08/05 11:11:46;;;;;;;1.27;0.40;;;22.90;62.60;;;;;;5047441;28;36714;-63
2022/08/05 11:14:22;;;;;;;0.93;0.35;;;23.00;64.90;;;;;;5047457;28;37955;-62
2022/08/05 11:17:22;;;;;;;2.05;0.30;;;22.90;64.40;;;;;;5046587;28;37278;-62
2022/08/05 11:19:52;;;;;;;2.30;0.30;;;22.90;60.80;;;;;;5048527;28;37465;-58
2022/08/05 11:22:42;;;;;;;1.35;0.32;;;22.80;62.00;;;;;;5048159;28;37042;-58
2022/08/05 11:25:29;;;;;;;2.78;0.75;;;22.80;59.40;;;;;;5042458;28;37421;-57
2022/08/05 11:27:57;;;;;;;2.70;0.43;;;22.60;61.40;;;;;;5049952;28;37889;-58
2022/08/05 11:30:24;;;;;;;3.97;0.57;;;22.40;63.40;;;;;;5050756;28;35991;-58
2022/08/05 11:33:27;;;;;;;6.00;0.70;;;22.40;65.20;;;;;;5050925;28;37956;-58
2022/08/05 11:35:57;;;;;;;3.33;0.68;;;22.50;68.00;;;;;;5046467;28;36248;-58
2022/08/05 11:38:53;;;;;;;2.20;0.60;;;22.50;70.20;;;;;;5050813;28;37731;-59
2022/08/05 11:41:22;;;;;;;4.13;0.50;;;22.40;71.60;;;;;;5049624;28;38949;-58
2022/08/05 11:43:59;;;;;;;5.97;0.73;;;22.20;73.00;;;;;;5051199;28;35886;-59
2022/08/05 11:46:27;;;;;;;2.50;0.60;;;22.10;75.80;;;;;;5050975;28;37625;-58
2022/08/05 11:48:55;;;;;;;4.25;0.50;;;22.00;72.80;;;;;;5049393;28;39243;-58
2022/08/05 11:51:26;;;;;;;4.50;0.82;;;21.90;72.20;;;;;;5050566;28;37675;-58
2022/08/05 11:53:54;;;;;;;2.05;0.45;;;22.00;72.60;;;;;;5051938;28;37230;-58
2022/08/05 11:56:22;;;;;;;2.40;0.80;;;22.00;71.20;;;;;;5047099;28;36849;-58
2022/08/05 11:58:51;;;;;;;4.15;0.40;;;22.00;71.50;;;;;;5051652;28;37356;-58
2022/08/05 12:01:20;;;;;;;4.63;0.70;;;21.90;71.70;;;;;;5052763;28;36841;-58
2022/08/05 12:03:51;;;;;;;2.75;0.50;;;21.90;71.60;;;;;;5050352;28;35891;-58
2022/08/05 12:06:20;;;;;;;1.20;0.32;;;21.90;72.40;;;;;;5052162;28;37560;-58
2022/08/05 12:08:50;;;;;;;4.55;0.55;;;22.00;71.70;;;;;;5050872;28;39003;-58
2022/08/05 12:11:19;;;;;;;1.85;0.50;;;22.00;70.80;;;;;;5048801;28;38380;-58
2022/08/05 12:13:57;;;;;;;4.43;0.50;;;21.90;69.90;;;;;;5052408;28;39455;-59
2022/08/05 12:16:25;;;;;;;2.72;0.30;;;22.00;68.50;;;;;;5050768;28;37308;-58
2022/08/05 12:18:53;;;;;;;4.10;0.60;;;22.00;71.20;;;;;;5049193;28;38035;-58
2022/08/05 12:21:23;;;;;;;3.95;0.57;;;21.90;73.00;;;;;;5047665;28;38885;-58
2022/08/05 12:23:58;;;;;;;4.85;1.45;;;21.80;74.70;;;;;;5046882;28;36610;-58
2022/08/05 12:26:31;;;;;;;3.03;0.55;;;21.70;74.80;;;;;;5043224;28;38293;-58
2022/08/05 12:28:59;;;;;;;3.78;0.55;;;21.60;75.90;;;;;;5046172;28;39019;-58
2022/08/05 12:31:26;;;;;;;1.55;0.40;;;21.40;76.40;;;;;;5037948;28;37411;-58
2022/08/05 12:33:56;;;;;;;1.02;0.40;;;21.30;77.70;;;;;;5044916;28;36318;-58
2022/08/05 12:36:23;;;;;;;1.88;0.50;;;21.20;78.70;;;;;;5044535;28;37987;-58
2022/08/05 12:38:51;;;;;;;1.90;0.52;;;21.20;78.20;;;;;;5043984;28;36587;-58
2022/08/05 12:41:19;;;;;;;3.65;1.20;;;21.20;77.80;;;;;;5042767;28;38770;-58
2022/08/05 12:43:57;;;;;;;3.15;0.63;;;21.30;77.70;;;;;;5039347;28;36704;-58
2022/08/05 12:46:27;;;;;;;2.92;0.77;;;21.40;76.90;;;;;;5039052;28;37153;-58
2022/08/05 12:48:58;;;;;;;1.98;0.60;;;21.30;75.50;;;;;;5046836;28;36543;-58
2022/08/05 12:51:27;;;;;;;3.63;0.80;;;21.40;76.00;;;;;;5048150;28;36261;-58
2022/08/05 12:54:00;;;;;;;3.85;0.60;;;21.40;77.30;;;;;;5046243;28;35144;-58
2022/08/05 12:56:32;;;;;;;4.03;0.47;;;21.40;78.30;;;;;;5046612;28;37232;-58
2022/08/05 12:59:16;;;;;;;2.60;0.45;;;21.40;77.40;;;;;;5044799;28;37140;-58
2022/08/05 13:01:46;;;;;;;1.58;0.50;;;21.30;76.80;;;;;;5046499;28;37640;-59
2022/08/05 13:04:16;;;;;;;3.13;0.60;;;21.20;77.20;;;;;;5046100;28;36687;-58